Hampton, VA (23661)

8:32 AM EDT on April 28, 2015 (GMT -0400)
East Hampton | | Change Station
CLOSE
Current Station
Personal Weather Station
Location: Hampton, VA
Elevation: 0 ft
Nearby Weather Stations

Elev 0 ft 37.03 °N, 76.34 °W | Updated 2 seconds ago

Clear
Clear
52.3 °F
Feels Like 52.3 °F
N
13.0
Wind Variable Wind from NNW
Gusts 15.0 mph

Today
High -- | Low -- °F
--% Chance of Precip.
Yesterday
High -- | Low -- °F
Precip. -- in
6:14 AM 7:51 PM
Waxing Gibbous, 73% visible
Pressure 29.91 in
Visibility 10.0 miles
Clouds Clear
Dew Point 40 °F
Humidity 63%
Rainfall 0.00 in
Snow Depth Not available.
UV 2.0 out of 12
Pollen 10.10 out of 12
Air Quality Not available.
Flu Activity Sporadic
METAR KLFI 281158Z AUTO 33010G19KT 10SM CLR 10/03 A2989 RMK AO2 SLP129 T00990033 10103 20073 52010 $

More Conditions Fewer Conditions

Pressure 29.91 in
Visibility 10.0 miles
Clouds Clear
Dew Point 40 °F
Humidity 63%
Rainfall 0.00 in
Snow Depth Not available.
UV 2.0 out of 12
Pollen 10.10 out of 12
Air Quality Not available.
Flu Activity Sporadic
METAR KLFI 281158Z AUTO 33010G19KT 10SM CLR 10/03 A2989 RMK AO2 SLP129 T00990033 10103 20073 52010 $

More Conditions Fewer Conditions

10-Day Weather Forecast

Almanac

Astronomy

Apr. 28, 2015 Rise Set
Actual Time
Civil Twilight
Nautical Twilight
Astronomical Twilight
Moon
Length of Visible Light
Length of Day
Tomorrow will be .
, % of the Moon is Illuminated

Today's Extremes

State Highs State Lows

Community

WunderPhotos

Upload Photos

1,817,618 photos uploaded!

WunderBlogs® & News

Nearby

Air Quality

  Air Quality AQ Index Pollutant
Not available.

Snow Depth

Station Depth Elevation

Earthquake Activity

City Distance Mag. Time & Date
Minimum magnitude displayed is 2.5.

Coastal Water Temperatures

Place Temperature

Stations

Nearby Weather Stations

Station Location Temp. Windchill Dew Point Humidity Wind Precip. Elev Updated Type